createdAt,value
2022-12-25T00:01:16.463Z,88.11
2022-12-25T00:03:46.081Z,88.14
2022-12-25T00:06:15.019Z,87.70
2022-12-25T00:08:46.732Z,87.36
2022-12-25T00:11:18.762Z,88.37
2022-12-25T00:13:48.427Z,88.55
2022-12-25T00:16:23.419Z,88.19
2022-12-25T00:18:52.563Z,87.81
2022-12-25T00:21:23.256Z,87.40
2022-12-25T00:23:59.505Z,88.17
2022-12-25T00:26:29.116Z,87.93
2022-12-25T00:28:59.910Z,87.66
2022-12-25T00:31:28.947Z,87.62
2022-12-25T00:33:57.657Z,87.19
2022-12-25T00:36:26.964Z,88.09
2022-12-25T00:38:55.795Z,87.04
2022-12-25T00:41:43.790Z,87.66
2022-12-25T00:44:14.447Z,88.39
2022-12-25T00:46:43.391Z,88.19
2022-12-25T00:49:13.380Z,87.96
2022-12-25T00:51:41.989Z,88.59
2022-12-25T00:54:12.981Z,88.54
2022-12-25T00:56:41.560Z,87.82
2022-12-25T00:59:10.375Z,88.66
2022-12-25T01:01:40.073Z,87.28
2022-12-25T01:04:12.317Z,88.41
2022-12-25T01:06:41.663Z,88.37
2022-12-25T01:09:29.247Z,87.86
2022-12-25T01:11:58.358Z,87.08
2022-12-25T01:14:27.639Z,87.04
2022-12-25T01:16:56.286Z,87.38
2022-12-25T01:19:24.990Z,88.29
2022-12-25T01:21:53.860Z,88.02
2022-12-25T01:24:22.579Z,87.36
2022-12-25T01:26:51.268Z,88.18
2022-12-25T01:29:19.830Z,88.58
2022-12-25T01:31:48.496Z,87.78
2022-12-25T01:34:17.243Z,88.39
2022-12-25T01:36:45.748Z,87.53
2022-12-25T01:39:15.303Z,88.33
2022-12-25T01:41:45.881Z,87.88
2022-12-25T01:44:17.355Z,87.63
2022-12-25T01:46:47.049Z,87.87
2022-12-25T01:49:22.371Z,87.67
2022-12-25T01:51:55.471Z,88.51
2022-12-25T01:54:47.664Z,88.08
2022-12-25T01:57:23.357Z,87.67
2022-12-25T01:59:53.147Z,88.41
2022-12-25T02:02:23.430Z,87.26
2022-12-25T02:04:58.626Z,87.94
2022-12-25T02:07:30.747Z,87.48
2022-12-25T02:09:59.868Z,87.65
2022-12-25T02:12:31.950Z,87.59
2022-12-25T02:15:06.229Z,87.45
2022-12-25T02:17:38.631Z,87.21
2022-12-25T02:20:13.935Z,88.19
2022-12-25T02:23:05.159Z,87.70
2022-12-25T02:25:52.447Z,87.33
2022-12-25T02:28:23.376Z,87.91
2022-12-25T02:30:57.736Z,87.77
2022-12-25T02:33:55.478Z,87.15
2022-12-25T02:36:30.215Z,87.94
2022-12-25T02:39:21.437Z,87.06
2022-12-25T02:41:55.117Z,88.39
2022-12-25T02:44:44.732Z,87.59
2022-12-25T02:47:31.868Z,87.76
2022-12-25T02:50:20.316Z,88.00
2022-12-25T02:53:10.457Z,88.12
2022-12-25T02:56:01.536Z,88.10
2022-12-25T02:58:51.457Z,87.54
2022-12-25T03:01:42.850Z,87.40
2022-12-25T03:04:36.611Z,87.60
2022-12-25T03:07:17.658Z,88.39
2022-12-25T03:10:16.383Z,87.78
2022-12-25T03:12:54.634Z,88.21
2022-12-25T03:15:42.197Z,87.90
2022-12-25T03:18:15.502Z,88.08
2022-12-25T03:21:02.817Z,87.89
2022-12-25T03:23:53.033Z,87.46
2022-12-25T03:26:39.877Z,87.38
2022-12-25T03:29:08.692Z,87.02
2022-12-25T03:32:04.302Z,87.56
2022-12-25T03:34:57.957Z,87.05
2022-12-25T03:38:10.384Z,86.90
2022-12-25T03:41:25.402Z,87.79
2022-12-25T03:44:35.777Z,86.84
2022-12-25T03:47:22.478Z,86.97
2022-12-25T03:50:43.620Z,87.81
2022-12-25T03:54:00.926Z,86.34
2022-12-25T03:56:51.380Z,87.67
2022-12-25T03:59:40.964Z,86.43
2022-12-25T04:02:29.381Z,87.50
2022-12-25T04:05:16.489Z,86.73
2022-12-25T04:08:03.912Z,86.56
2022-12-25T04:10:51.247Z,86.39
2022-12-25T04:13:39.020Z,86.74
2022-12-25T04:16:26.512Z,85.89
2022-12-25T04:19:13.476Z,85.92
2022-12-25T04:22:00.753Z,86.20
2022-12-25T04:24:47.988Z,86.25
2022-12-25T04:27:35.093Z,86.49
2022-12-25T04:30:23.383Z,85.61
2022-12-25T04:33:16.464Z,85.83
2022-12-25T04:36:09.887Z,85.20
2022-12-25T04:38:39.880Z,85.17
2022-12-25T04:41:10.759Z,85.08
2022-12-25T04:43:39.832Z,84.55
2022-12-25T04:46:08.555Z,85.26
2022-12-25T04:48:37.905Z,84.75
2022-12-25T04:51:19.748Z,85.50
2022-12-25T04:53:49.489Z,84.21
2022-12-25T04:56:19.028Z,84.78
2022-12-25T04:58:48.627Z,84.90
2022-12-25T05:01:17.935Z,84.20
2022-12-25T05:03:47.124Z,84.50
2022-12-25T05:06:15.875Z,83.89
2022-12-25T05:08:44.877Z,84.78
2022-12-25T05:11:17.446Z,83.84
2022-12-25T05:13:46.858Z,84.28
2022-12-25T05:16:19.297Z,84.08
2022-12-25T05:18:52.576Z,84.21
2022-12-25T05:21:21.839Z,83.14
2022-12-25T05:23:54.515Z,82.96
2022-12-25T05:26:26.270Z,82.68
2022-12-25T05:28:55.833Z,83.54
2022-12-25T05:31:24.902Z,83.60
2022-12-25T05:33:54.175Z,82.98
2022-12-25T05:36:23.039Z,82.50
2022-12-25T05:38:51.753Z,82.59
2022-12-25T05:41:21.008Z,82.63
2022-12-25T05:43:49.915Z,83.04
2022-12-25T05:46:18.928Z,82.08
2022-12-25T05:48:47.864Z,83.04
2022-12-25T05:51:16.853Z,82.21
2022-12-25T05:53:45.995Z,82.18
2022-12-25T05:56:14.722Z,81.76
2022-12-25T05:58:43.724Z,81.02
2022-12-25T06:01:18.985Z,81.77
2022-12-25T06:03:48.241Z,82.23
2022-12-25T06:06:17.554Z,81.83
2022-12-25T06:08:46.718Z,81.37
2022-12-25T06:11:16.393Z,81.56
2022-12-25T06:13:45.716Z,81.12
2022-12-25T06:16:14.560Z,80.71
2022-12-25T06:18:46.857Z,81.27
2022-12-25T06:21:17.421Z,80.68
2022-12-25T06:23:46.102Z,80.27
2022-12-25T06:26:19.931Z,80.97
2022-12-25T06:28:49.368Z,80.90
2022-12-25T06:31:20.903Z,79.90
2022-12-25T06:33:50.380Z,81.17
2022-12-25T06:36:24.871Z,80.67
2022-12-25T06:38:54.076Z,79.97
2022-12-25T06:41:25.569Z,80.55
2022-12-25T06:43:56.905Z,79.42
2022-12-25T06:46:27.543Z,80.52
2022-12-25T06:48:58.044Z,79.18
2022-12-25T06:51:29.932Z,79.30
2022-12-25T06:53:59.960Z,79.79
2022-12-25T06:56:29.662Z,80.01
2022-12-25T06:59:01.345Z,79.83
2022-12-25T07:01:50.320Z,80.12
2022-12-25T07:04:25.205Z,78.29
2022-12-25T07:06:54.350Z,79.68
2022-12-25T07:09:23.049Z,79.22
2022-12-25T07:11:52.031Z,79.08
2022-12-25T07:14:24.708Z,78.99
2022-12-25T07:16:53.740Z,78.73
2022-12-25T07:19:22.486Z,78.48
2022-12-25T07:21:51.273Z,78.92
2022-12-25T07:24:21.669Z,78.96
2022-12-25T07:26:52.420Z,79.00
2022-12-25T07:29:21.348Z,78.30
2022-12-25T07:31:50.247Z,79.14
2022-12-25T07:34:19.329Z,78.53
2022-12-25T07:36:48.036Z,77.71
2022-12-25T07:39:17.226Z,77.99
2022-12-25T07:41:46.002Z,77.49
2022-12-25T07:44:16.221Z,76.66
2022-12-25T07:46:45.068Z,78.17
2022-12-25T07:49:13.720Z,77.43
2022-12-25T07:51:42.576Z,77.48
2022-12-25T07:54:11.327Z,76.96
2022-12-25T07:56:40.062Z,77.94
2022-12-25T07:59:08.844Z,76.76
2022-12-25T08:01:37.838Z,76.63
2022-12-25T08:04:07.012Z,77.69
2022-12-25T08:06:37.090Z,76.53
2022-12-25T08:09:14.100Z,76.95
2022-12-25T08:11:47.789Z,76.74
2022-12-25T08:14:16.921Z,77.26
2022-12-25T08:16:47.516Z,76.74
2022-12-25T08:19:17.043Z,76.70
2022-12-25T08:21:45.762Z,76.36
2022-12-25T08:24:14.809Z,76.82
2022-12-25T08:26:43.819Z,76.83
2022-12-25T08:29:12.818Z,76.33
2022-12-25T08:31:46.497Z,76.56
2022-12-25T08:34:15.686Z,75.89
2022-12-25T08:36:44.728Z,75.85
2022-12-25T08:39:13.707Z,76.92
2022-12-25T08:41:42.667Z,76.61
2022-12-25T08:44:13.710Z,75.53
2022-12-25T08:46:42.912Z,76.23
2022-12-25T08:49:12.044Z,76.32
2022-12-25T08:51:41.093Z,76.16
2022-12-25T08:54:10.118Z,76.50
2022-12-25T08:56:38.768Z,75.75
2022-12-25T08:59:07.621Z,76.66
2022-12-25T09:01:36.774Z,76.16
2022-12-25T09:04:05.867Z,76.31
2022-12-25T09:06:34.887Z,75.95
2022-12-25T09:09:03.600Z,76.21
2022-12-25T09:11:32.721Z,76.33
2022-12-25T09:14:02.068Z,76.51
2022-12-25T09:16:31.622Z,76.81
2022-12-25T09:19:00.774Z,76.59
2022-12-25T09:21:29.752Z,76.77
2022-12-25T09:23:58.791Z,76.54
2022-12-25T09:26:28.064Z,76.73
2022-12-25T09:28:57.205Z,76.43
2022-12-25T09:31:26.533Z,76.50
2022-12-25T09:33:58.749Z,76.78
2022-12-25T09:36:27.650Z,76.77
2022-12-25T09:38:56.623Z,76.96
2022-12-25T09:41:25.294Z,76.77
2022-12-25T09:44:00.446Z,76.21
2022-12-25T09:46:37.263Z,76.14
2022-12-25T09:49:28.925Z,76.44
2022-12-25T09:52:09.235Z,76.12
2022-12-25T09:54:55.944Z,76.82
2022-12-25T09:57:26.040Z,76.78
2022-12-25T09:59:58.063Z,77.05
2022-12-25T10:02:29.584Z,77.52
2022-12-25T10:05:19.836Z,76.75
2022-12-25T10:07:54.559Z,76.89
2022-12-25T10:11:04.034Z,76.93
2022-12-25T10:13:54.538Z,76.76
2022-12-25T10:16:50.989Z,77.19
2022-12-25T10:19:22.590Z,76.72
2022-12-25T10:21:55.729Z,77.57
2022-12-25T10:24:31.734Z,77.46
2022-12-25T10:27:04.324Z,77.59
2022-12-25T10:29:36.151Z,76.83
2022-12-25T10:32:05.643Z,76.97
2022-12-25T10:34:44.527Z,77.40
2022-12-25T10:37:13.872Z,76.70
2022-12-25T10:39:46.975Z,76.98
2022-12-25T10:42:38.506Z,77.51
2022-12-25T10:45:09.971Z,77.08
2022-12-25T10:47:43.139Z,77.76
2022-12-25T10:50:25.793Z,76.89
2022-12-25T10:53:10.278Z,77.66
2022-12-25T10:55:39.441Z,77.11
2022-12-25T10:58:08.349Z,77.18
2022-12-25T11:00:37.361Z,76.98
2022-12-25T11:03:06.592Z,77.28
2022-12-25T11:05:37.217Z,77.66
2022-12-25T11:08:21.981Z,77.60
2022-12-25T11:11:08.871Z,77.90
2022-12-25T11:13:48.607Z,78.04
2022-12-25T11:16:40.626Z,77.45
2022-12-25T11:19:28.676Z,77.87
2022-12-25T11:22:02.404Z,77.59
2022-12-25T11:24:33.764Z,78.03
2022-12-25T11:27:07.044Z,77.80
2022-12-25T11:29:51.415Z,77.14
2022-12-25T11:32:42.710Z,77.37
2022-12-25T11:35:18.050Z,78.04
2022-12-25T11:37:50.295Z,77.34
2022-12-25T11:40:28.283Z,77.84
2022-12-25T11:43:08.239Z,78.01
2022-12-25T11:45:42.496Z,78.08
2022-12-25T11:48:25.591Z,78.14
2022-12-25T11:51:03.770Z,78.32
2022-12-25T11:53:58.689Z,78.12
2022-12-25T11:56:31.283Z,77.66
2022-12-25T11:59:26.678Z,78.04
2022-12-25T12:02:19.488Z,77.58
2022-12-25T12:04:56.757Z,77.44
2022-12-25T12:07:31.521Z,77.96
2022-12-25T12:10:25.833Z,77.98
2022-12-25T12:13:03.607Z,77.57
2022-12-25T12:15:59.310Z,77.24
2022-12-25T12:18:28.176Z,78.51
2022-12-25T12:21:05.867Z,77.66
2022-12-25T12:24:13.227Z,78.32
2022-12-25T12:26:45.112Z,77.82
2022-12-25T12:29:30.323Z,79.21
2022-12-25T12:32:04.848Z,78.43
2022-12-25T12:34:44.361Z,78.43
2022-12-25T12:37:33.363Z,78.02
2022-12-25T12:40:02.877Z,78.59
2022-12-25T12:42:42.319Z,77.70
2022-12-25T12:45:26.695Z,77.85
2022-12-25T12:47:56.075Z,78.59
2022-12-25T12:50:34.187Z,77.86
2022-12-25T12:53:19.615Z,78.32
2022-12-25T12:55:48.473Z,77.71
2022-12-25T12:58:53.511Z,78.70
2022-12-25T13:01:28.368Z,78.38
2022-12-25T13:04:22.100Z,78.80
2022-12-25T13:07:01.687Z,78.03
2022-12-25T13:09:41.667Z,79.06
2022-12-25T13:12:15.842Z,78.14
2022-12-25T13:14:49.159Z,78.78
2022-12-25T13:17:29.142Z,77.79
2022-12-25T13:20:00.652Z,78.98
2022-12-25T13:22:35.592Z,77.92
2022-12-25T13:25:11.097Z,78.82
2022-12-25T13:27:40.113Z,78.42
2022-12-25T13:30:20.021Z,78.33
2022-12-25T13:32:50.034Z,79.09
2022-12-25T13:35:21.964Z,77.95
2022-12-25T13:37:51.424Z,78.27
2022-12-25T13:40:29.001Z,78.36
2022-12-25T13:43:02.873Z,78.61
2022-12-25T13:45:34.775Z,78.37
2022-12-25T13:48:16.988Z,78.44
2022-12-25T13:50:49.267Z,79.12
2022-12-25T13:53:19.316Z,78.37
2022-12-25T13:55:55.288Z,77.98
2022-12-25T13:58:30.989Z,79.25
2022-12-25T14:01:02.349Z,78.51
2022-12-25T14:03:45.268Z,78.75
2022-12-25T14:06:26.118Z,78.89
2022-12-25T14:08:57.439Z,78.44
2022-12-25T14:11:29.676Z,79.67
2022-12-25T14:14:05.284Z,78.31
2022-12-25T14:16:35.125Z,79.23
2022-12-25T14:19:04.867Z,78.51
2022-12-25T14:21:41.741Z,79.05
2022-12-25T14:24:16.465Z,79.56
2022-12-25T14:26:45.399Z,79.47
2022-12-25T14:29:24.998Z,79.15
2022-12-25T14:32:01.219Z,79.99
2022-12-25T14:34:34.405Z,79.81
2022-12-25T14:37:05.193Z,79.80
2022-12-25T14:39:39.057Z,79.08
2022-12-25T14:42:21.178Z,79.36
2022-12-25T14:45:33.856Z,79.45
2022-12-25T14:48:21.172Z,79.33
2022-12-25T14:51:03.580Z,79.32
2022-12-25T14:53:51.102Z,79.28
2022-12-25T14:56:21.964Z,78.72
2022-12-25T14:59:01.902Z,78.73
2022-12-25T15:01:34.938Z,79.66
2022-12-25T15:04:13.067Z,78.86
2022-12-25T15:06:55.819Z,79.15
2022-12-25T15:09:25.209Z,78.52
2022-12-25T15:11:56.843Z,79.12
2022-12-25T15:14:28.066Z,79.37
2022-12-25T15:17:00.538Z,79.47
2022-12-25T15:19:37.355Z,78.78
2022-12-25T15:22:08.382Z,79.23
2022-12-25T15:24:37.998Z,78.98
2022-12-25T15:27:15.029Z,79.44
2022-12-25T15:30:09.168Z,79.59
2022-12-25T15:32:33.881Z,78.87
2022-12-25T15:35:02.943Z,79.32
2022-12-25T15:37:32.117Z,79.05
2022-12-25T15:40:02.197Z,78.80
2022-12-25T15:42:31.170Z,78.75
2022-12-25T15:45:00.395Z,79.63
2022-12-25T15:47:29.442Z,79.42
2022-12-25T15:50:00.492Z,79.04
2022-12-25T15:52:30.216Z,79.66
2022-12-25T15:54:58.898Z,78.66
2022-12-25T15:57:27.656Z,78.68
2022-12-25T15:59:56.782Z,78.73
2022-12-25T16:02:26.198Z,78.76
2022-12-25T16:04:56.378Z,79.40
2022-12-25T16:07:26.483Z,78.59
2022-12-25T16:09:55.243Z,79.19
2022-12-25T16:12:24.324Z,79.09
2022-12-25T16:14:53.954Z,78.85
2022-12-25T16:17:22.805Z,78.88
2022-12-25T16:19:51.682Z,79.62
2022-12-25T16:22:23.866Z,79.25
2022-12-25T16:24:53.828Z,79.60
2022-12-25T16:27:23.659Z,79.28
2022-12-25T16:29:53.838Z,79.21
2022-12-25T16:32:22.972Z,79.11
2022-12-25T16:34:51.999Z,79.02
2022-12-25T16:37:21.061Z,79.54
2022-12-25T16:39:49.944Z,79.32
2022-12-25T16:42:22.611Z,79.31
2022-12-25T16:44:51.600Z,78.27
2022-12-25T16:47:21.138Z,78.37
2022-12-25T16:49:51.353Z,78.25
2022-12-25T16:52:22.173Z,78.77
2022-12-25T16:54:53.298Z,78.25
2022-12-25T16:57:22.468Z,78.68
2022-12-25T16:59:51.979Z,78.61
2022-12-25T17:02:23.159Z,78.03
2022-12-25T17:04:53.063Z,78.99
2022-12-25T17:07:23.529Z,78.68
2022-12-25T17:09:52.497Z,77.67
2022-12-25T17:12:24.793Z,79.11
2022-12-25T17:14:53.937Z,77.92
2022-12-25T17:17:22.695Z,79.07
2022-12-25T17:19:51.887Z,79.06
2022-12-25T17:22:21.386Z,78.22
2022-12-25T17:24:50.709Z,77.62
2022-12-25T17:27:19.938Z,78.05
2022-12-25T17:29:49.412Z,79.04
2022-12-25T17:32:18.195Z,78.90
2022-12-25T17:34:47.132Z,78.69
2022-12-25T17:37:16.352Z,79.13
2022-12-25T17:39:45.091Z,79.02
2022-12-25T17:42:14.004Z,77.60
2022-12-25T17:44:42.695Z,78.58
2022-12-25T17:47:12.892Z,77.73
2022-12-25T17:49:41.963Z,77.83
2022-12-25T17:52:10.978Z,78.25
2022-12-25T17:54:41.699Z,78.36
2022-12-25T17:57:11.264Z,78.66
2022-12-25T17:59:40.048Z,78.69
2022-12-25T18:02:12.906Z,78.18
2022-12-25T18:04:41.651Z,78.47
2022-12-25T18:07:10.393Z,77.89
2022-12-25T18:09:39.217Z,77.85
2022-12-25T18:12:08.244Z,77.92
2022-12-25T18:14:40.325Z,79.18
2022-12-25T18:17:09.149Z,77.92
2022-12-25T18:19:37.774Z,78.93
2022-12-25T18:22:06.668Z,79.00
2022-12-25T18:24:39.613Z,78.88
2022-12-25T18:27:08.412Z,78.87
2022-12-25T18:29:37.244Z,78.69
2022-12-25T18:32:06.768Z,78.54
2022-12-25T18:34:35.547Z,78.28
2022-12-25T18:37:05.127Z,78.62
2022-12-25T18:39:34.829Z,78.13
2022-12-25T18:42:22.123Z,79.02
2022-12-25T18:44:51.366Z,77.88
2022-12-25T18:47:20.276Z,78.00
2022-12-25T18:49:50.006Z,78.69
2022-12-25T18:52:49.455Z,78.19
2022-12-25T18:55:08.646Z,78.07
2022-12-25T18:57:37.556Z,78.28
2022-12-25T19:00:06.812Z,78.76
2022-12-25T19:02:35.944Z,78.02
2022-12-25T19:05:05.067Z,78.84
2022-12-25T19:07:33.901Z,77.92
2022-12-25T19:10:03.242Z,78.36
2022-12-25T19:12:32.041Z,78.24
2022-12-25T19:15:00.724Z,78.62
2022-12-25T19:17:31.886Z,77.88
2022-12-25T19:20:01.344Z,78.40
2022-12-25T19:22:30.205Z,78.50
2022-12-25T19:24:58.943Z,78.76
2022-12-25T19:27:27.920Z,78.19
2022-12-25T19:29:56.560Z,78.71
2022-12-25T19:32:25.366Z,78.09
2022-12-25T19:34:54.118Z,77.92
2022-12-25T19:37:22.671Z,77.83
2022-12-25T19:39:51.522Z,78.90
2022-12-25T19:42:22.698Z,77.93
2022-12-25T19:44:51.447Z,77.63
2022-12-25T19:47:20.283Z,78.40
2022-12-25T19:49:53.001Z,78.42
2022-12-25T19:52:22.362Z,78.42
2022-12-25T19:54:54.199Z,77.78
2022-12-25T19:57:22.981Z,78.01
2022-12-25T19:59:59.280Z,77.92
2022-12-25T20:02:28.184Z,77.88
2022-12-25T20:04:57.390Z,78.41
2022-12-25T20:07:26.003Z,78.12
2022-12-25T20:09:54.947Z,77.99
2022-12-25T20:12:24.472Z,77.99
2022-12-25T20:14:53.223Z,77.89
2022-12-25T20:17:22.309Z,77.54
2022-12-25T20:19:51.225Z,77.55
2022-12-25T20:22:19.787Z,77.76
2022-12-25T20:24:49.804Z,77.79
2022-12-25T20:27:18.485Z,77.33
2022-12-25T20:29:47.278Z,77.48
2022-12-25T20:32:16.288Z,77.54
2022-12-25T20:34:45.325Z,76.99
2022-12-25T20:37:14.154Z,77.04
2022-12-25T20:39:43.003Z,77.28
2022-12-25T20:42:11.726Z,77.51
2022-12-25T20:44:40.913Z,77.39
2022-12-25T20:47:09.825Z,77.33
2022-12-25T20:49:38.518Z,77.13
2022-12-25T20:52:07.525Z,76.97
2022-12-25T20:54:36.463Z,76.81
2022-12-25T20:57:05.325Z,76.65
2022-12-25T20:59:37.620Z,76.27
2022-12-25T21:02:07.807Z,76.94
2022-12-25T21:04:36.513Z,76.43
2022-12-25T21:07:06.722Z,76.41
2022-12-25T21:09:35.435Z,76.91
2022-12-25T21:12:04.267Z,75.76
2022-12-25T21:14:32.957Z,75.96
2022-12-25T21:17:01.694Z,75.76
2022-12-25T21:19:30.482Z,76.06
2022-12-25T21:21:59.290Z,75.76
2022-12-25T21:24:29.059Z,75.15
2022-12-25T21:26:57.725Z,75.26
2022-12-25T21:29:26.504Z,75.33
2022-12-25T21:32:13.940Z,75.12
2022-12-25T21:34:42.673Z,74.17
2022-12-25T21:37:11.601Z,74.46
2022-12-25T21:39:40.370Z,74.88
2022-12-25T21:42:08.971Z,74.45
2022-12-25T21:44:40.836Z,74.63
2022-12-25T21:47:09.566Z,74.57
2022-12-25T21:49:57.819Z,73.77
2022-12-25T21:52:26.876Z,73.77
2022-12-25T21:54:55.535Z,73.70
2022-12-25T21:57:24.174Z,73.42
2022-12-25T21:59:52.567Z,73.17
2022-12-25T22:02:21.909Z,73.32
2022-12-25T22:04:50.736Z,73.59
2022-12-25T22:07:19.584Z,73.26
2022-12-25T22:09:50.202Z,73.05
2022-12-25T22:12:39.743Z,73.30
2022-12-25T22:15:10.516Z,73.23
2022-12-25T22:18:02.225Z,73.06
2022-12-25T22:20:36.748Z,73.33
2022-12-25T22:23:06.267Z,72.84
2022-12-25T22:25:35.464Z,72.70
2022-12-25T22:28:05.911Z,72.62
2022-12-25T22:30:34.751Z,72.67
2022-12-25T22:33:03.815Z,72.32
2022-12-25T22:35:32.682Z,71.59
2022-12-25T22:38:02.339Z,71.25
2022-12-25T22:40:31.020Z,71.77
2022-12-25T22:42:59.678Z,71.78
2022-12-25T22:45:28.161Z,71.38
2022-12-25T22:47:58.405Z,71.50
2022-12-25T22:50:27.542Z,71.40
2022-12-25T22:52:56.454Z,71.16
2022-12-25T22:55:25.912Z,70.70
2022-12-25T22:57:54.931Z,70.78
2022-12-25T23:00:24.158Z,70.62
2022-12-25T23:02:53.136Z,71.06
2022-12-25T23:05:22.931Z,71.15
2022-12-25T23:07:52.866Z,70.53
2022-12-25T23:10:22.438Z,70.78
2022-12-25T23:13:10.202Z,71.43
2022-12-25T23:15:39.245Z,71.07
2022-12-25T23:18:26.160Z,70.37
2022-12-25T23:21:19.381Z,70.85
2022-12-25T23:24:07.075Z,69.94
2022-12-25T23:26:36.061Z,70.23
2022-12-25T23:29:23.872Z,69.60
2022-12-25T23:31:54.281Z,70.20
2022-12-25T23:34:23.071Z,70.61
2022-12-25T23:36:51.902Z,71.24
2022-12-25T23:39:20.781Z,70.42
2022-12-25T23:41:49.701Z,70.52
2022-12-25T23:44:18.707Z,70.25
2022-12-25T23:46:52.830Z,70.66
2022-12-25T23:49:23.369Z,70.35
2022-12-25T23:51:52.695Z,70.44
2022-12-25T23:54:24.325Z,70.00
2022-12-25T23:56:56.080Z,70.28
2022-12-25T23:59:30.126Z,70.27
